Impacts TAF Board INFO
FOR SITUATIONAL AWARENESS. NOT TO BE USED FOR FLIGHT PLANNING PURPOSES.
IDs:

KCLT - Charlotte/Douglas In, NC, US

Issued at 0526 UTC 19 Jan 2017
Updated at 0627 UTC 19 Jan 2017
Potential Impact None Slight Moderate High
Time0552Z 19/07Z 19/08Z 19/09Z 19/10Z 19/11Z 19/12Z 19/13Z 19/14Z 19/15Z 19/16Z 19/17Z 19/18Z 19/19Z
Type OBS PRVL PRVL PRVL PRVL PRVL PRVL PRVL PRVL PRVL PRVL PRVL PRVL PRVL
VIS 10 >6 >6 >6 >6 >6 >6 >6 >6 >6 >6 >6 >6 >6
CIG -- -- -- -- -- -- -- -- -- -- -- -- -- --
Cover CLR SCT SCT SCT SCT SCT SCT SCT SCT SCT SCT SCT SCT SCT
FltCat VFR VFR VFR VFR VFR VFR VFR VFR VFR VFR VFR VFR VFR VFR
WX -- -- -- -- -- -- -- -- -- -- -- -- -- --
WDir VRB 30 30 30 30 30 30 30 30 30 30 30 30 100
WSpd 0 3 3 3 3 3 3 3 3 3 3 3 3 3
WGst -- -- -- -- -- -- -- -- -- -- -- -- -- --

Raw TAF
KCLT 190526Z 1906/2006 03003KT P6SM SCT250
  FM191900 10003KT P6SM SCT090
  FM192100 18003KT P6SM BKN080
  PROB30 2004/2006 4SM -SHRA OVC040


Raw METAR
KCLT 190552Z 00000KT 10SM CLR 10/03 A3007 RMK AO2 SLP177 T01000028 10167 20061 50004
KCLT 190452Z 02003KT 10SM CLR 11/02 A3007 RMK AO2 SLP178 T01110022 402390061
KCLT 190352Z 02004KT 10SM CLR 08/01 A3007 RMK AO2 SLP179 T00830011

METAR Board
Radar Display
Forecast Discussion

FOR SITUATIONAL AWARENESS. NOT TO BE USED FOR FLIGHT PLANNING PURPOSES.

Page loaded:  06:27 UTC  |   10:27 PM Pacific  |   11:27 PM Mountain  |   12:27 AM Central  |   01:27 AM Eastern

 

ADVISORIES

FORECASTS

FORECASTS

OBSERVATIONS

USER TOOLS

ABOUT US